sensor_id;sensor_type;location;lat;lon;timestamp;pressure;altitude;pressure_sealevel;temperature;humidity
72802;BME280;61891;55.818;37.084;2023-07-22T00:00:20;98866.66;;;14.53;57.84
72802;BME280;61891;55.818;37.084;2023-07-22T00:02:48;98859.91;;;14.50;57.69
72802;BME280;61891;55.818;37.084;2023-07-22T00:05:14;98846.13;;;14.40;58.04
72802;BME280;61891;55.818;37.084;2023-07-22T00:07:40;98828.47;;;14.26;57.50
72802;BME280;61891;55.818;37.084;2023-07-22T00:10:07;98841.78;;;14.33;58.12
72802;BME280;61891;55.818;37.084;2023-07-22T00:12:36;98863.38;;;14.44;58.57
72802;BME280;61891;55.818;37.084;2023-07-22T00:15:02;98871.38;;;14.44;58.14
72802;BME280;61891;55.818;37.084;2023-07-22T00:17:31;98871.38;;;14.44;58.21
72802;BME280;61891;55.818;37.084;2023-07-22T00:19:57;98861.50;;;14.38;58.34
72802;BME280;61891;55.818;37.084;2023-07-22T00:22:23;98877.09;;;14.41;58.44
72802;BME280;61891;55.818;37.084;2023-07-22T00:24:49;98879.97;;;14.40;58.45
72802;BME280;61891;55.818;37.084;2023-07-22T00:27:14;98879.34;;;14.38;58.37
72802;BME280;61891;55.818;37.084;2023-07-22T00:29:40;98875.03;;;14.37;58.30
72802;BME280;61891;55.818;37.084;2023-07-22T00:32:07;98857.38;;;14.23;58.63
72802;BME280;61891;55.818;37.084;2023-07-22T00:34:35;98843.00;;;14.10;58.86
72802;BME280;61891;55.818;37.084;2023-07-22T00:37:00;98856.75;;;14.20;58.36
72802;BME280;61891;55.818;37.084;2023-07-22T00:39:26;98873.56;;;14.28;58.44
72802;BME280;61891;55.818;37.084;2023-07-22T00:41:52;98846.06;;;14.01;58.50
72802;BME280;61891;55.818;37.084;2023-07-22T00:44:18;98880.34;;;14.24;58.74
72802;BME280;61891;55.818;37.084;2023-07-22T00:46:44;98855.09;;;14.06;58.56
72802;BME280;61891;55.818;37.084;2023-07-22T00:49:11;98815.66;;;13.75;59.29
72802;BME280;61891;55.818;37.084;2023-07-22T00:51:38;98876.63;;;14.11;59.28
72802;BME280;61891;55.818;37.084;2023-07-22T00:54:04;98878.03;;;14.07;59.44
72802;BME280;61891;55.818;37.084;2023-07-22T00:56:33;98697.38;;;12.96;59.33
72802;BME280;61891;55.818;37.084;2023-07-22T00:59:01;98860.78;;;13.90;59.68
72802;BME280;61891;55.818;37.084;2023-07-22T01:01:27;98839.03;;;13.80;59.58
72802;BME280;61891;55.818;37.084;2023-07-22T01:03:53;98857.50;;;13.88;59.22
72802;BME280;61891;55.818;37.084;2023-07-22T01:06:19;98873.28;;;13.90;59.20
72802;BME280;61891;55.818;37.084;2023-07-22T01:08:45;98888.66;;;13.94;60.26
72802;BME280;61891;55.818;37.084;2023-07-22T01:11:12;98875.91;;;13.83;59.68
72802;BME280;61891;55.818;37.084;2023-07-22T01:13:38;98887.41;;;13.90;59.73
72802;BME280;61891;55.818;37.084;2023-07-22T01:16:05;98885.16;;;13.87;58.41
72802;BME280;61891;55.818;37.084;2023-07-22T01:18:33;98882.28;;;13.82;59.51
72802;BME280;61891;55.818;37.084;2023-07-22T01:21:02;98895.00;;;13.86;59.57
72802;BME280;61891;55.818;37.084;2023-07-22T01:23:28;98899.50;;;13.86;59.98
72802;BME280;61891;55.818;37.084;2023-07-22T01:25:54;98868.25;;;13.60;59.41
72802;BME280;61891;55.818;37.084;2023-07-22T01:28:23;98885.28;;;13.66;59.59
72802;BME280;61891;55.818;37.084;2023-07-22T01:30:49;98856.28;;;13.43;59.79
72802;BME280;61891;55.818;37.084;2023-07-22T01:33:15;98904.16;;;13.71;59.90
72802;BME280;61891;55.818;37.084;2023-07-22T01:35:41;98885.25;;;13.59;60.24
72802;BME280;61891;55.818;37.084;2023-07-22T01:38:06;98914.59;;;13.72;59.95
72802;BME280;61891;55.818;37.084;2023-07-22T01:40:33;98915.81;;;13.70;60.25
72802;BME280;61891;55.818;37.084;2023-07-22T01:42:59;98908.81;;;13.62;59.48
72802;BME280;61891;55.818;37.084;2023-07-22T01:45:25;98912.94;;;13.65;59.45
72802;BME280;61891;55.818;37.084;2023-07-22T01:47:51;98929.72;;;13.65;60.16
72802;BME280;61891;55.818;37.084;2023-07-22T01:50:17;98923.38;;;13.66;60.35
72802;BME280;61891;55.818;37.084;2023-07-22T01:52:44;98927.69;;;13.67;60.54
72802;BME280;61891;55.818;37.084;2023-07-22T01:55:12;98932.00;;;13.68;59.69
72802;BME280;61891;55.818;37.084;2023-07-22T01:57:38;98924.22;;;13.67;60.05
72802;BME280;61891;55.818;37.084;2023-07-22T02:00:07;98920.91;;;13.65;60.27
72802;BME280;61891;55.818;37.084;2023-07-22T02:02:39;98920.91;;;13.65;60.90
72802;BME280;61891;55.818;37.084;2023-07-22T02:05:05;98936.31;;;13.69;61.70
72802;BME280;61891;55.818;37.084;2023-07-22T02:07:31;98928.75;;;13.73;60.78
72802;BME280;61891;55.818;37.084;2023-07-22T02:09:57;98898.56;;;13.59;60.72
72802;BME280;61891;55.818;37.084;2023-07-22T02:12:23;98920.97;;;13.78;61.26
72802;BME280;61891;55.818;37.084;2023-07-22T02:14:49;98910.25;;;13.65;59.70
72802;BME280;61891;55.818;37.084;2023-07-22T02:17:15;98897.56;;;13.67;60.96
72802;BME280;61891;55.818;37.084;2023-07-22T02:19:41;98915.63;;;13.71;60.50
72802;BME280;61891;55.818;37.084;2023-07-22T02:22:07;98916.44;;;13.72;60.35
72802;BME280;61891;55.818;37.084;2023-07-22T02:24:32;98941.94;;;13.87;60.71
72802;BME280;61891;55.818;37.084;2023-07-22T02:26:59;98941.72;;;13.89;60.73
72802;BME280;61891;55.818;37.084;2023-07-22T02:29:25;98938.03;;;13.90;60.52
72802;BME280;61891;55.818;37.084;2023-07-22T02:31:50;98933.13;;;13.94;60.75
72802;BME280;61891;55.818;37.084;2023-07-22T02:34:16;98940.53;;;13.98;61.04
72802;BME280;61891;55.818;37.084;2023-07-22T02:36:42;98921.66;;;13.93;60.35
72802;BME280;61891;55.818;37.084;2023-07-22T02:39:08;98906.03;;;13.83;59.92
72802;BME280;61891;55.818;37.084;2023-07-22T02:41:37;98932.31;;;13.93;59.95
72802;BME280;61891;55.818;37.084;2023-07-22T02:44:03;98936.47;;;14.09;60.07
72802;BME280;61891;55.818;37.084;2023-07-22T02:46:29;98944.72;;;14.20;60.17
72802;BME280;61891;55.818;37.084;2023-07-22T02:48:55;98944.53;;;14.29;60.60
72802;BME280;61891;55.818;37.084;2023-07-22T02:51:20;98944.78;;;14.40;60.29
72802;BME280;61891;55.818;37.084;2023-07-22T02:53:46;98948.09;;;14.49;60.38
72802;BME280;61891;55.818;37.084;2023-07-22T02:56:12;98936.00;;;14.46;59.76
72802;BME280;61891;55.818;37.084;2023-07-22T02:58:39;98923.88;;;14.44;59.73
72802;BME280;61891;55.818;37.084;2023-07-22T03:01:07;98941.16;;;14.61;60.53
72802;BME280;61891;55.818;37.084;2023-07-22T03:03:35;98944.84;;;14.73;60.11
72802;BME280;61891;55.818;37.084;2023-07-22T03:06:01;98917.97;;;14.62;59.38
72802;BME280;61891;55.818;37.084;2023-07-22T03:08:27;98950.00;;;14.81;60.17
72802;BME280;61891;55.818;37.084;2023-07-22T03:10:52;98932.56;;;14.79;60.06
72802;BME280;61891;55.818;37.084;2023-07-22T03:13:18;98931.53;;;14.80;59.98
72802;BME280;61891;55.818;37.084;2023-07-22T03:15:44;98920.22;;;14.78;59.53
72802;BME280;61891;55.818;37.084;2023-07-22T03:18:11;98941.59;;;15.04;59.78
72802;BME280;61891;55.818;37.084;2023-07-22T03:20:38;98941.16;;;15.14;59.97
72802;BME280;61891;55.818;37.084;2023-07-22T03:23:05;98915.50;;;15.06;59.69
72802;BME280;61891;55.818;37.084;2023-07-22T03:25:32;98951.22;;;15.32;59.61
72802;BME280;61891;55.818;37.084;2023-07-22T03:28:05;98950.19;;;15.33;59.56
72802;BME280;61891;55.818;37.084;2023-07-22T03:30:32;98954.72;;;15.32;59.16
72802;BME280;61891;55.818;37.084;2023-07-22T03:32:59;98961.09;;;15.31;59.29
72802;BME280;61891;55.818;37.084;2023-07-22T03:35:26;98921.25;;;15.10;59.44
72802;BME280;61891;55.818;37.084;2023-07-22T03:37:52;98957.59;;;15.31;59.37
72802;BME280;61891;55.818;37.084;2023-07-22T03:40:18;98935.00;;;15.20;59.73
72802;BME280;61891;55.818;37.084;2023-07-22T03:43:03;98957.59;;;15.31;59.62
72802;BME280;61891;55.818;37.084;2023-07-22T03:45:29;98969.91;;;15.32;59.61
72802;BME280;61891;55.818;37.084;2023-07-22T03:47:59;98974.84;;;15.35;59.97
72802;BME280;61891;55.818;37.084;2023-07-22T03:50:26;98953.88;;;15.32;59.56
72802;BME280;61891;55.818;37.084;2023-07-22T03:52:52;98964.97;;;15.42;59.34
72802;BME280;61891;55.818;37.084;2023-07-22T03:55:17;98972.38;;;15.46;59.23
72802;BME280;61891;55.818;37.084;2023-07-22T03:57:45;98937.88;;;15.25;59.40
72802;BME280;61891;55.818;37.084;2023-07-22T04:00:12;98956.13;;;15.41;59.93
72802;BME280;61891;55.818;37.084;2023-07-22T04:02:39;98968.25;;;15.57;59.55
72802;BME280;61891;55.818;37.084;2023-07-22T04:05:06;98958.22;;;15.66;59.38
72802;BME280;61891;55.818;37.084;2023-07-22T04:07:31;98930.25;;;15.62;58.80
72802;BME280;61891;55.818;37.084;2023-07-22T04:09:57;98955.25;;;15.87;59.17
72802;BME280;61891;55.818;37.084;2023-07-22T04:12:23;98962.41;;;16.00;59.36
72802;BME280;61891;55.818;37.084;2023-07-22T04:14:49;98950.47;;;16.02;59.03
72802;BME280;61891;55.818;37.084;2023-07-22T04:17:14;98940.81;;;16.01;59.13
72802;BME280;61891;55.818;37.084;2023-07-22T04:19:41;98957.44;;;16.10;58.99
72802;BME280;61891;55.818;37.084;2023-07-22T04:22:08;98960.72;;;16.12;58.58
72802;BME280;61891;55.818;37.084;2023-07-22T04:24:34;98952.72;;;16.05;58.86
72802;BME280;61891;55.818;37.084;2023-07-22T04:27:01;98969.16;;;16.16;58.87
72802;BME280;61891;55.818;37.084;2023-07-22T04:29:27;98969.72;;;16.24;58.74
72802;BME280;61891;55.818;37.084;2023-07-22T04:32:00;98970.06;;;16.41;58.75
72802;BME280;61891;55.818;37.084;2023-07-22T04:34:31;98969.50;;;16.64;58.27
72802;BME280;61891;55.818;37.084;2023-07-22T04:36:58;98973.34;;;16.81;57.91
72802;BME280;61891;55.818;37.084;2023-07-22T04:39:23;98964.81;;;16.91;57.86
72802;BME280;61891;55.818;37.084;2023-07-22T04:41:50;98974.06;;;16.95;57.72
72802;BME280;61891;55.818;37.084;2023-07-22T04:44:15;98982.09;;;16.95;57.48
72802;BME280;61891;55.818;37.084;2023-07-22T04:46:41;98984.59;;;16.90;57.41
72802;BME280;61891;55.818;37.084;2023-07-22T04:49:07;98966.38;;;16.73;57.66
72802;BME280;61891;55.818;37.084;2023-07-22T04:51:33;98984.09;;;16.74;57.78
72802;BME280;61891;55.818;37.084;2023-07-22T04:53:58;98986.75;;;16.74;58.00
72802;BME280;61891;55.818;37.084;2023-07-22T04:56:24;98984.25;;;16.80;57.84
72802;BME280;61891;55.818;37.084;2023-07-22T04:58:50;98953.44;;;16.70;57.93
72802;BME280;61891;55.818;37.084;2023-07-22T05:01:16;98995.97;;;17.10;57.81
72802;BME280;61891;55.818;37.084;2023-07-22T05:03:42;98990.84;;;17.33;57.27
72802;BME280;61891;55.818;37.084;2023-07-22T05:06:08;98982.31;;;17.43;56.73
72802;BME280;61891;55.818;37.084;2023-07-22T05:08:34;98988.06;;;17.47;56.85
72802;BME280;61891;55.818;37.084;2023-07-22T05:11:00;98974.50;;;17.42;56.99
72802;BME280;61891;55.818;37.084;2023-07-22T05:13:26;98977.25;;;17.53;56.72
72802;BME280;61891;55.818;37.084;2023-07-22T05:15:52;98979.34;;;17.51;56.85
72802;BME280;61891;55.818;37.084;2023-07-22T05:18:18;98969.66;;;17.50;56.64
72802;BME280;61891;55.818;37.084;2023-07-22T05:20:44;98986.19;;;17.72;56.42
72802;BME280;61891;55.818;37.084;2023-07-22T05:23:11;98965.00;;;17.64;56.07
72802;BME280;61891;55.818;37.084;2023-07-22T05:25:37;98979.34;;;17.76;56.11
72802;BME280;61891;55.818;37.084;2023-07-22T05:28:03;98985.97;;;17.92;55.72
72802;BME280;61891;55.818;37.084;2023-07-22T05:30:29;98979.03;;;18.02;55.99
72802;BME280;61891;55.818;37.084;2023-07-22T05:32:55;98961.16;;;17.96;55.69
72802;BME280;61891;55.818;37.084;2023-07-22T05:35:21;98974.69;;;18.20;55.33
72802;BME280;61891;55.818;37.084;2023-07-22T05:37:46;98978.25;;;18.32;55.32
72802;BME280;61891;55.818;37.084;2023-07-22T05:40:13;98972.13;;;18.43;54.91
72802;BME280;61891;55.818;37.084;2023-07-22T05:42:38;98968.91;;;18.53;54.44
72802;BME280;61891;55.818;37.084;2023-07-22T05:45:04;98977.84;;;18.65;54.57
72802;BME280;61891;55.818;37.084;2023-07-22T05:47:32;98974.00;;;18.73;53.87
72802;BME280;61891;55.818;37.084;2023-07-22T05:49:58;98964.59;;;18.82;53.94
72802;BME280;61891;55.818;37.084;2023-07-22T05:52:24;98970.44;;;18.90;53.86
72802;BME280;61891;55.818;37.084;2023-07-22T05:54:50;98974.78;;;19.03;53.11
72802;BME280;61891;55.818;37.084;2023-07-22T05:57:16;98968.50;;;19.09;53.14
72802;BME280;61891;55.818;37.084;2023-07-22T05:59:41;98968.75;;;19.19;53.17
72802;BME280;61891;55.818;37.084;2023-07-22T06:02:08;98976.94;;;19.24;52.54
72802;BME280;61891;55.818;37.084;2023-07-22T06:04:34;98955.53;;;19.29;52.72
72802;BME280;61891;55.818;37.084;2023-07-22T06:07:00;98977.09;;;19.53;51.95
72802;BME280;61891;55.818;37.084;2023-07-22T06:09:25;98979.19;;;19.62;52.00
72802;BME280;61891;55.818;37.084;2023-07-22T06:11:51;98954.41;;;19.60;52.19
72802;BME280;61891;55.818;37.084;2023-07-22T06:14:17;98979.28;;;19.79;51.97
72802;BME280;61891;55.818;37.084;2023-07-22T06:16:42;98979.50;;;19.89;50.92
72802;BME280;61891;55.818;37.084;2023-07-22T06:19:08;98952.03;;;19.87;51.09
72802;BME280;61891;55.818;37.084;2023-07-22T06:21:34;98951.75;;;20.01;50.92
72802;BME280;61891;55.818;37.084;2023-07-22T06:24:00;98971.34;;;20.24;50.36
72802;BME280;61891;55.818;37.084;2023-07-22T06:26:26;98974.13;;;20.29;49.95
72802;BME280;61891;55.818;37.084;2023-07-22T06:28:52;98945.88;;;20.15;49.61
72802;BME280;61891;55.818;37.084;2023-07-22T06:31:18;98970.38;;;20.42;49.43
72802;BME280;61891;55.818;37.084;2023-07-22T06:33:43;98955.19;;;20.24;49.74
72802;BME280;61891;55.818;37.084;2023-07-22T06:36:14;98934.28;;;20.15;49.38
72802;BME280;61891;55.818;37.084;2023-07-22T06:38:39;98983.84;;;20.42;48.79
72802;BME280;61891;55.818;37.084;2023-07-22T06:41:05;98934.31;;;20.03;48.66
72802;BME280;61891;55.818;37.084;2023-07-22T06:43:31;98979.63;;;20.46;48.07
72802;BME280;61891;55.818;37.084;2023-07-22T06:45:56;98980.13;;;20.60;47.80
72802;BME280;61891;55.818;37.084;2023-07-22T06:48:22;98969.56;;;20.70;47.03
72802;BME280;61891;55.818;37.084;2023-07-22T06:50:49;98964.72;;;20.84;48.01
72802;BME280;61891;55.818;37.084;2023-07-22T06:53:15;98985.13;;;20.97;47.35
72802;BME280;61891;55.818;37.084;2023-07-22T06:55:49;98984.56;;;20.95;46.75
72802;BME280;61891;55.818;37.084;2023-07-22T06:58:15;98963.00;;;20.95;47.32
72802;BME280;61891;55.818;37.084;2023-07-22T07:00:40;98966.81;;;21.27;47.00
72802;BME280;61891;55.818;37.084;2023-07-22T07:03:06;98967.84;;;21.43;46.86
72802;BME280;61891;55.818;37.084;2023-07-22T07:05:32;98982.38;;;21.59;46.19
72802;BME280;61891;55.818;37.084;2023-07-22T07:07:57;98972.47;;;21.64;45.53
72802;BME280;61891;55.818;37.084;2023-07-22T07:10:23;98988.16;;;21.67;44.84
72802;BME280;61891;55.818;37.084;2023-07-22T07:12:49;98979.09;;;21.73;44.94
72802;BME280;61891;55.818;37.084;2023-07-22T07:15:14;98967.53;;;21.78;44.02
72802;BME280;61891;55.818;37.084;2023-07-22T07:17:40;98975.81;;;21.71;44.64
72802;BME280;61891;55.818;37.084;2023-07-22T07:20:06;98951.28;;;21.73;44.58
72802;BME280;61891;55.818;37.084;2023-07-22T07:22:32;98965.22;;;22.03;44.21
72802;BME280;61891;55.818;37.084;2023-07-22T07:24:58;98970.53;;;22.20;43.94
72802;BME280;61891;55.818;37.084;2023-07-22T07:27:23;98966.22;;;22.19;44.32
72802;BME280;61891;55.818;37.084;2023-07-22T07:29:49;98967.34;;;22.23;43.44
72802;BME280;61891;55.818;37.084;2023-07-22T07:32:15;98961.88;;;22.18;43.63
72802;BME280;61891;55.818;37.084;2023-07-22T07:34:40;98976.06;;;22.30;43.54
72802;BME280;61891;55.818;37.084;2023-07-22T07:37:06;98973.78;;;22.44;43.72
72802;BME280;61891;55.818;37.084;2023-07-22T07:39:32;98968.19;;;22.50;43.56
72802;BME280;61891;55.818;37.084;2023-07-22T07:41:57;98967.06;;;22.46;43.19
72802;BME280;61891;55.818;37.084;2023-07-22T07:44:23;98983.41;;;22.35;43.16
72802;BME280;61891;55.818;37.084;2023-07-22T07:46:48;98979.63;;;22.36;42.39
72802;BME280;61891;55.818;37.084;2023-07-22T07:49:14;98959.59;;;22.32;42.59
72802;BME280;61891;55.818;37.084;2023-07-22T07:51:40;98935.25;;;22.27;42.37
72802;BME280;61891;55.818;37.084;2023-07-22T07:54:07;98972.97;;;22.70;42.65
72802;BME280;61891;55.818;37.084;2023-07-22T07:56:33;98975.31;;;22.83;42.29
72802;BME280;61891;55.818;37.084;2023-07-22T07:58:59;98989.06;;;22.82;41.92
72802;BME280;61891;55.818;37.084;2023-07-22T08:01:25;98970.31;;;22.75;41.06
72802;BME280;61891;55.818;37.084;2023-07-22T08:03:50;98961.88;;;22.67;41.33
72802;BME280;61891;55.818;37.084;2023-07-22T08:06:16;98988.38;;;22.70;41.09
72802;BME280;61891;55.818;37.084;2023-07-22T08:08:42;98971.56;;;22.63;40.93
72802;BME280;61891;55.818;37.084;2023-07-22T08:11:12;98973.81;;;22.71;41.10
72802;BME280;61891;55.818;37.084;2023-07-22T08:13:43;98971.38;;;22.96;40.58
72802;BME280;61891;55.818;37.084;2023-07-22T08:16:11;98957.72;;;23.13;40.94
72802;BME280;61891;55.818;37.084;2023-07-22T08:18:38;98976.47;;;23.25;40.27
72802;BME280;61891;55.818;37.084;2023-07-22T08:21:06;98968.91;;;23.27;40.44
72802;BME280;61891;55.818;37.084;2023-07-22T08:23:33;98939.16;;;23.27;40.68
72802;BME280;61891;55.818;37.084;2023-07-22T08:25:59;98983.53;;;23.63;40.25
72802;BME280;61891;55.818;37.084;2023-07-22T08:28:25;98970.91;;;23.78;40.14
72802;BME280;61891;55.818;37.084;2023-07-22T08:30:55;98983.25;;;23.59;39.97
72802;BME280;61891;55.818;37.084;2023-07-22T08:33:22;98960.00;;;23.63;39.88
72802;BME280;61891;55.818;37.084;2023-07-22T08:35:48;98965.59;;;23.99;39.69
72802;BME280;61891;55.818;37.084;2023-07-22T08:38:14;98982.59;;;24.47;39.50
72802;BME280;61891;55.818;37.084;2023-07-22T08:40:40;98984.00;;;24.64;39.42
72802;BME280;61891;55.818;37.084;2023-07-22T08:43:08;98991.03;;;24.60;38.19
72802;BME280;61891;55.818;37.084;2023-07-22T08:45:36;98991.13;;;24.18;38.56
72802;BME280;61891;55.818;37.084;2023-07-22T08:48:05;98889.59;;;23.16;39.00
72802;BME280;61891;55.818;37.084;2023-07-22T08:53:05;98959.94;;;25.09;38.37
72802;BME280;61891;55.818;37.084;2023-07-22T08:55:31;98984.59;;;25.78;37.62
72802;BME280;61891;55.818;37.084;2023-07-22T08:57:57;98972.84;;;26.08;36.77
72802;BME280;61891;55.818;37.084;2023-07-22T09:00:24;98986.00;;;26.50;35.42
72802;BME280;61891;55.818;37.084;2023-07-22T09:02:50;98978.59;;;26.61;34.48
72802;BME280;61891;55.818;37.084;2023-07-22T09:05:17;98978.84;;;26.64;33.52
72802;BME280;61891;55.818;37.084;2023-07-22T09:07:43;98975.09;;;27.00;33.65
72802;BME280;61891;55.818;37.084;2023-07-22T09:10:09;98981.97;;;27.26;32.27
72802;BME280;61891;55.818;37.084;2023-07-22T09:12:35;98970.34;;;27.15;32.27
72802;BME280;61891;55.818;37.084;2023-07-22T09:15:12;98950.84;;;27.37;31.97
72802;BME280;61891;55.818;37.084;2023-07-22T09:17:40;98977.28;;;27.66;31.88
72802;BME280;61891;55.818;37.084;2023-07-22T09:20:08;99003.16;;;27.92;31.18
72802;BME280;61891;55.818;37.084;2023-07-22T09:22:37;98982.34;;;28.25;31.51
72802;BME280;61891;55.818;37.084;2023-07-22T09:27:58;98966.28;;;27.76;30.23
72802;BME280;61891;55.818;37.084;2023-07-22T09:30:32;98989.13;;;27.17;31.44
72802;BME280;61891;55.818;37.084;2023-07-22T09:33:00;98949.34;;;26.43;31.65
72802;BME280;61891;55.818;37.084;2023-07-22T09:35:29;98989.94;;;27.17;30.98
72802;BME280;61891;55.818;37.084;2023-07-22T09:37:55;98995.09;;;27.82;31.05
72802;BME280;61891;55.818;37.084;2023-07-22T09:40:26;99004.88;;;28.54;30.42
72802;BME280;61891;55.818;37.084;2023-07-22T09:42:54;98995.25;;;29.00;29.99
72802;BME280;61891;55.818;37.084;2023-07-22T09:45:22;98937.34;;;28.84;29.04
72802;BME280;61891;55.818;37.084;2023-07-22T09:47:49;98999.88;;;29.18;28.42
72802;BME280;61891;55.818;37.084;2023-07-22T09:50:18;98992.91;;;29.26;28.45
72802;BME280;61891;55.818;37.084;2023-07-22T09:52:48;98985.63;;;29.54;28.15
72802;BME280;61891;55.818;37.084;2023-07-22T09:55:16;98998.13;;;29.73;27.61
72802;BME280;61891;55.818;37.084;2023-07-22T09:57:49;98983.47;;;30.24;27.74
72802;BME280;61891;55.818;37.084;2023-07-22T10:00:16;99020.28;;;30.82;26.80
72802;BME280;61891;55.818;37.084;2023-07-22T10:02:47;99011.63;;;30.11;27.26
72802;BME280;61891;55.818;37.084;2023-07-22T10:05:19;99008.81;;;29.05;27.23
72802;BME280;61891;55.818;37.084;2023-07-22T10:07:53;98984.00;;;28.45;28.42
72802;BME280;61891;55.818;37.084;2023-07-22T10:10:23;99020.22;;;28.27;28.61
72802;BME280;61891;55.818;37.084;2023-07-22T10:12:49;99006.94;;;29.19;28.69
72802;BME280;61891;55.818;37.084;2023-07-22T10:15:16;99006.56;;;30.04;28.55
72802;BME280;61891;55.818;37.084;2023-07-22T10:17:44;98991.06;;;30.13;27.85
72802;BME280;61891;55.818;37.084;2023-07-22T10:20:11;99008.78;;;30.30;27.47
72802;BME280;61891;55.818;37.084;2023-07-22T10:22:42;99003.94;;;30.90;28.06
72802;BME280;61891;55.818;37.084;2023-07-22T10:25:11;98996.63;;;31.66;26.59
72802;BME280;61891;55.818;37.084;2023-07-22T10:27:39;98999.84;;;32.30;26.47
72802;BME280;61891;55.818;37.084;2023-07-22T10:30:10;98993.91;;;32.54;25.36
72802;BME280;61891;55.818;37.084;2023-07-22T10:32:42;99016.66;;;32.07;25.15
72802;BME280;61891;55.818;37.084;2023-07-22T10:35:17;98993.28;;;32.09;24.74
72802;BME280;61891;55.818;37.084;2023-07-22T10:37:46;99007.00;;;31.25;24.66
72802;BME280;61891;55.818;37.084;2023-07-22T10:43:05;99016.38;;;30.60;25.34
72802;BME280;61891;55.818;37.084;2023-07-22T10:45:40;98978.13;;;31.05;25.05
72802;BME280;61891;55.818;37.084;2023-07-22T10:48:13;99006.81;;;32.45;24.21
72802;BME280;61891;55.818;37.084;2023-07-22T10:50:46;98999.25;;;33.28;24.15
72802;BME280;61891;55.818;37.084;2023-07-22T11:04:22;98990.69;;;34.03;22.36
72802;BME280;61891;55.818;37.084;2023-07-22T11:06:57;99011.66;;;35.16;21.43
72802;BME280;61891;55.818;37.084;2023-07-22T11:11:56;99005.84;;;32.58;22.31
72802;BME280;61891;55.818;37.084;2023-07-22T11:14:28;98976.97;;;30.61;23.54
72802;BME280;61891;55.818;37.084;2023-07-22T11:16:56;98981.13;;;29.11;24.35
72802;BME280;61891;55.818;37.084;2023-07-22T11:19:24;99017.94;;;28.10;25.38
72802;BME280;61891;55.818;37.084;2023-07-22T11:21:52;99021.19;;;27.25;26.37
72802;BME280;61891;55.818;37.084;2023-07-22T11:24:19;99019.84;;;26.78;27.16
72802;BME280;61891;55.818;37.084;2023-07-22T11:26:46;99015.09;;;26.50;27.61
72802;BME280;61891;55.818;37.084;2023-07-22T11:29:12;99015.69;;;26.37;27.70
72802;BME280;61891;55.818;37.084;2023-07-22T11:31:40;99013.41;;;27.42;27.49
72802;BME280;61891;55.818;37.084;2023-07-22T11:34:18;99021.41;;;28.15;27.39
72802;BME280;61891;55.818;37.084;2023-07-22T11:36:44;99012.47;;;27.57;26.72
72802;BME280;61891;55.818;37.084;2023-07-22T11:39:12;98986.78;;;28.40;26.95
72802;BME280;61891;55.818;37.084;2023-07-22T11:41:42;99003.25;;;28.72;25.95
72802;BME280;61891;55.818;37.084;2023-07-22T11:44:09;99035.31;;;30.70;25.25
72802;BME280;61891;55.818;37.084;2023-07-22T11:49:26;99036.63;;;33.29;22.23
72802;BME280;61891;55.818;37.084;2023-07-22T11:51:56;99019.97;;;33.09;21.40
72802;BME280;61891;55.818;37.084;2023-07-22T11:54:22;99046.31;;;33.36;21.63
72802;BME280;61891;55.818;37.084;2023-07-22T11:56:48;99026.00;;;32.36;22.04
72802;BME280;61891;55.818;37.084;2023-07-22T11:59:14;99021.03;;;30.60;23.42
72802;BME280;61891;55.818;37.084;2023-07-22T12:01:43;99032.78;;;28.89;24.36
72802;BME280;61891;55.818;37.084;2023-07-22T12:04:13;99020.94;;;27.84;25.80
72802;BME280;61891;55.818;37.084;2023-07-22T12:06:40;99049.00;;;27.17;26.76
72802;BME280;61891;55.818;37.084;2023-07-22T12:09:07;99051.34;;;26.20;27.88
72802;BME280;61891;55.818;37.084;2023-07-22T12:11:35;99056.81;;;25.59;28.94
72802;BME280;61891;55.818;37.084;2023-07-22T12:14:11;99021.78;;;25.01;29.83
72802;BME280;61891;55.818;37.084;2023-07-22T12:16:39;99014.19;;;25.03;30.45
72802;BME280;61891;55.818;37.084;2023-07-22T12:19:06;99013.41;;;25.33;30.42
72802;BME280;61891;55.818;37.084;2023-07-22T12:21:33;99037.09;;;27.08;29.28
72802;BME280;61891;55.818;37.084;2023-07-22T12:23:59;98989.09;;;27.51;28.53
72802;BME280;61891;55.818;37.084;2023-07-22T12:26:25;99009.03;;;28.90;27.77
72802;BME280;61891;55.818;37.084;2023-07-22T12:28:51;99016.34;;;31.10;26.52
72802;BME280;61891;55.818;37.084;2023-07-22T12:31:17;98989.19;;;31.89;25.64
72802;BME280;61891;55.818;37.084;2023-07-22T12:33:43;99011.38;;;31.79;25.18
72802;BME280;61891;55.818;37.084;2023-07-22T12:36:08;99010.16;;;31.40;24.70
72802;BME280;61891;55.818;37.084;2023-07-22T12:38:34;99016.69;;;30.95;25.29
72802;BME280;61891;55.818;37.084;2023-07-22T12:41:01;99009.16;;;31.14;24.43
72802;BME280;61891;55.818;37.084;2023-07-22T12:43:27;98988.47;;;31.75;24.42
72802;BME280;61891;55.818;37.084;2023-07-22T12:45:53;99015.03;;;31.07;24.75
72802;BME280;61891;55.818;37.084;2023-07-22T12:48:19;98999.56;;;29.98;25.73
72802;BME280;61891;55.818;37.084;2023-07-22T12:50:45;99009.84;;;29.09;26.55
72802;BME280;61891;55.818;37.084;2023-07-22T12:53:13;99001.06;;;28.32;27.03
72802;BME280;61891;55.818;37.084;2023-07-22T12:55:39;98977.50;;;27.69;27.58
72802;BME280;61891;55.818;37.084;2023-07-22T12:58:05;98984.88;;;27.69;27.81
72802;BME280;61891;55.818;37.084;2023-07-22T13:00:31;99005.03;;;29.01;27.18
72802;BME280;61891;55.818;37.084;2023-07-22T13:02:56;98982.09;;;30.76;26.13
72802;BME280;61891;55.818;37.084;2023-07-22T13:05:23;98999.94;;;32.99;24.92
72802;BME280;61891;55.818;37.084;2023-07-22T13:07:49;99002.97;;;34.43;23.24
72802;BME280;61891;55.818;37.084;2023-07-22T13:10:17;98992.06;;;35.63;22.60
72802;BME280;61891;55.818;37.084;2023-07-22T13:12:47;98977.34;;;36.41;21.99